WMKC/KBR METAR and TAF weather

Enter ICAO airport designator
Station Type Date Time Source
WMKC METAR 2023/02/04 02:00 UTC NOAA

WMKC 040200Z 10009KT 040V190 9999 FEW012 28/24 Q1011


Station Type Date Time Source
WMKC Decoded METAR 2023/02/04 02:00 UTC NOAA

Kota Bharu, Malaysia (WMKC) 06-10N 102-17E 5M
Feb 03, 2023 - 09:00 PM EST / 2023.02.04 0200 UTC
Wind: from the E (100 degrees) at 10 MPH (9 KT) (direction variable):0
Visibility: greater than 7 mile(s):0
Sky conditions: mostly clear
Temperature: 82 F (28 C)
Dew Point: 75 F (24 C)
Relative Humidity: 78%
Pressure (altimeter): 29.85 in. Hg (1011 hPa)
ob: WMKC 040200Z 10009KT 040V190 9999 FEW012 28/24 Q1011
cycle: 2

Station Type Date Time Source
WMKC TAF 2023/02/03 18:00 UTC NOAA

TAF WMKC 031700Z 0318/0418 08008KT 9999 FEW020
TEMPO 0318/0400 7000 -RA FEW010 SCT020

Example: see airport list